sensor_id;sensor_type;location;lat;lon;timestamp;P1;durP1;ratioP1;P2;durP2;ratioP2
9749;SDS011;4914;43.218;27.908;2022-10-16T00:01:07;15.23;;;12.67;;
9749;SDS011;4914;43.218;27.908;2022-10-16T00:03:36;14.83;;;13.23;;
9749;SDS011;4914;43.218;27.908;2022-10-16T00:06:03;16.77;;;12.50;;
9749;SDS011;4914;43.218;27.908;2022-10-16T00:08:31;15.40;;;11.70;;
9749;SDS011;4914;43.218;27.908;2022-10-16T00:11:00;13.30;;;11.73;;
9749;SDS011;4914;43.218;27.908;2022-10-16T00:13:28;12.80;;;11.30;;
9749;SDS011;4914;43.218;27.908;2022-10-16T00:15:56;14.67;;;10.80;;
9749;SDS011;4914;43.218;27.908;2022-10-16T00:18:24;16.50;;;11.90;;
9749;SDS011;4914;43.218;27.908;2022-10-16T00:20:51;13.53;;;11.27;;
9749;SDS011;4914;43.218;27.908;2022-10-16T00:23:18;15.23;;;11.53;;
9749;SDS011;4914;43.218;27.908;2022-10-16T00:25:45;17.00;;;11.43;;
9749;SDS011;4914;43.218;27.908;2022-10-16T00:28:23;16.20;;;10.70;;
9749;SDS011;4914;43.218;27.908;2022-10-16T00:30:50;15.10;;;10.50;;
9749;SDS011;4914;43.218;27.908;2022-10-16T00:33:17;12.77;;;11.00;;
9749;SDS011;4914;43.218;27.908;2022-10-16T00:35:44;13.20;;;10.37;;
9749;SDS011;4914;43.218;27.908;2022-10-16T00:38:11;16.37;;;10.63;;
9749;SDS011;4914;43.218;27.908;2022-10-16T00:40:38;13.77;;;9.90;;
9749;SDS011;4914;43.218;27.908;2022-10-16T00:43:08;13.20;;;9.70;;
9749;SDS011;4914;43.218;27.908;2022-10-16T00:45:40;12.93;;;9.97;;
9749;SDS011;4914;43.218;27.908;2022-10-16T00:48:07;15.77;;;10.07;;
9749;SDS011;4914;43.218;27.908;2022-10-16T00:50:39;12.03;;;10.30;;
9749;SDS011;4914;43.218;27.908;2022-10-16T00:53:08;12.13;;;10.17;;
9749;SDS011;4914;43.218;27.908;2022-10-16T00:55:36;11.97;;;9.70;;
9749;SDS011;4914;43.218;27.908;2022-10-16T00:58:03;14.63;;;9.60;;
9749;SDS011;4914;43.218;27.908;2022-10-16T01:00:30;13.53;;;9.73;;
9749;SDS011;4914;43.218;27.908;2022-10-16T01:02:59;11.57;;;9.33;;
9749;SDS011;4914;43.218;27.908;2022-10-16T01:05:28;12.43;;;9.40;;
9749;SDS011;4914;43.218;27.908;2022-10-16T01:08:04;13.10;;;9.20;;
9749;SDS011;4914;43.218;27.908;2022-10-16T01:10:40;14.17;;;9.07;;
9749;SDS011;4914;43.218;27.908;2022-10-16T01:13:15;10.80;;;9.20;;
9749;SDS011;4914;43.218;27.908;2022-10-16T01:15:48;10.80;;;9.13;;
9749;SDS011;4914;43.218;27.908;2022-10-16T01:18:23;12.67;;;9.43;;
9749;SDS011;4914;43.218;27.908;2022-10-16T01:20:58;12.80;;;9.30;;
9749;SDS011;4914;43.218;27.908;2022-10-16T01:23:33;10.73;;;9.20;;
9749;SDS011;4914;43.218;27.908;2022-10-16T01:26:14;11.43;;;9.70;;
9749;SDS011;4914;43.218;27.908;2022-10-16T01:28:59;11.33;;;9.23;;
9749;SDS011;4914;43.218;27.908;2022-10-16T01:31:32;11.90;;;9.00;;
9749;SDS011;4914;43.218;27.908;2022-10-16T01:34:03;10.57;;;8.63;;
9749;SDS011;4914;43.218;27.908;2022-10-16T01:36:35;11.70;;;8.57;;
9749;SDS011;4914;43.218;27.908;2022-10-16T01:39:06;13.20;;;9.20;;
9749;SDS011;4914;43.218;27.908;2022-10-16T01:41:38;12.17;;;9.03;;
9749;SDS011;4914;43.218;27.908;2022-10-16T01:44:11;9.73;;;8.80;;
9749;SDS011;4914;43.218;27.908;2022-10-16T01:46:44;9.57;;;8.63;;
9749;SDS011;4914;43.218;27.908;2022-10-16T01:49:14;12.10;;;8.83;;
9749;SDS011;4914;43.218;27.908;2022-10-16T01:51:44;12.57;;;8.90;;
9749;SDS011;4914;43.218;27.908;2022-10-16T01:54:14;11.23;;;8.63;;
9749;SDS011;4914;43.218;27.908;2022-10-16T01:56:45;11.93;;;8.30;;
9749;SDS011;4914;43.218;27.908;2022-10-16T01:59:15;10.97;;;8.43;;
9749;SDS011;4914;43.218;27.908;2022-10-16T02:01:45;13.10;;;8.57;;
9749;SDS011;4914;43.218;27.908;2022-10-16T02:04:17;9.53;;;8.00;;
9749;SDS011;4914;43.218;27.908;2022-10-16T02:06:47;9.20;;;7.60;;
9749;SDS011;4914;43.218;27.908;2022-10-16T02:09:13;15.07;;;7.90;;
9749;SDS011;4914;43.218;27.908;2022-10-16T02:11:42;9.27;;;7.47;;
9749;SDS011;4914;43.218;27.908;2022-10-16T02:14:09;9.50;;;7.77;;
9749;SDS011;4914;43.218;27.908;2022-10-16T02:16:38;8.57;;;7.60;;
9749;SDS011;4914;43.218;27.908;2022-10-16T02:19:07;8.33;;;7.40;;
9749;SDS011;4914;43.218;27.908;2022-10-16T02:21:36;8.30;;;7.40;;
9749;SDS011;4914;43.218;27.908;2022-10-16T02:24:09;9.80;;;7.60;;
9749;SDS011;4914;43.218;27.908;2022-10-16T02:26:45;10.17;;;7.07;;
9749;SDS011;4914;43.218;27.908;2022-10-16T02:29:20;8.63;;;7.50;;
9749;SDS011;4914;43.218;27.908;2022-10-16T02:31:52;11.33;;;7.30;;
9749;SDS011;4914;43.218;27.908;2022-10-16T02:34:21;10.20;;;7.30;;
9749;SDS011;4914;43.218;27.908;2022-10-16T02:36:50;9.37;;;7.30;;
9749;SDS011;4914;43.218;27.908;2022-10-16T02:39:20;9.50;;;7.00;;
9749;SDS011;4914;43.218;27.908;2022-10-16T02:41:47;9.57;;;7.70;;
9749;SDS011;4914;43.218;27.908;2022-10-16T02:44:14;9.20;;;7.23;;
9749;SDS011;4914;43.218;27.908;2022-10-16T02:46:41;7.77;;;6.97;;
9749;SDS011;4914;43.218;27.908;2022-10-16T02:49:09;11.07;;;6.93;;
9749;SDS011;4914;43.218;27.908;2022-10-16T02:51:37;11.43;;;6.80;;
9749;SDS011;4914;43.218;27.908;2022-10-16T02:54:04;8.40;;;7.47;;
9749;SDS011;4914;43.218;27.908;2022-10-16T02:56:30;8.53;;;7.10;;
9749;SDS011;4914;43.218;27.908;2022-10-16T02:58:58;8.50;;;7.20;;
9749;SDS011;4914;43.218;27.908;2022-10-16T03:01:25;10.07;;;6.80;;
9749;SDS011;4914;43.218;27.908;2022-10-16T03:03:52;8.60;;;7.37;;
9749;SDS011;4914;43.218;27.908;2022-10-16T03:06:20;7.20;;;6.50;;
9749;SDS011;4914;43.218;27.908;2022-10-16T03:08:47;8.03;;;7.10;;
9749;SDS011;4914;43.218;27.908;2022-10-16T03:11:14;9.50;;;6.80;;
9749;SDS011;4914;43.218;27.908;2022-10-16T03:13:40;9.27;;;6.93;;
9749;SDS011;4914;43.218;27.908;2022-10-16T03:16:07;8.17;;;6.87;;
9749;SDS011;4914;43.218;27.908;2022-10-16T03:18:34;12.10;;;6.30;;
9749;SDS011;4914;43.218;27.908;2022-10-16T03:21:01;7.37;;;6.67;;
9749;SDS011;4914;43.218;27.908;2022-10-16T03:23:29;7.63;;;6.90;;
9749;SDS011;4914;43.218;27.908;2022-10-16T03:25:56;11.90;;;6.70;;
9749;SDS011;4914;43.218;27.908;2022-10-16T03:28:24;8.43;;;6.50;;
9749;SDS011;4914;43.218;27.908;2022-10-16T03:30:51;8.83;;;6.53;;
9749;SDS011;4914;43.218;27.908;2022-10-16T03:33:17;10.30;;;6.57;;
9749;SDS011;4914;43.218;27.908;2022-10-16T03:35:50;7.60;;;6.80;;
9749;SDS011;4914;43.218;27.908;2022-10-16T03:38:17;11.63;;;6.80;;
9749;SDS011;4914;43.218;27.908;2022-10-16T03:40:45;7.70;;;6.90;;
9749;SDS011;4914;43.218;27.908;2022-10-16T03:43:12;10.63;;;6.60;;
9749;SDS011;4914;43.218;27.908;2022-10-16T03:45:39;10.27;;;6.70;;
9749;SDS011;4914;43.218;27.908;2022-10-16T03:48:06;10.77;;;6.90;;
9749;SDS011;4914;43.218;27.908;2022-10-16T03:50:33;7.83;;;6.47;;
9749;SDS011;4914;43.218;27.908;2022-10-16T03:53:00;9.67;;;7.10;;
9749;SDS011;4914;43.218;27.908;2022-10-16T03:55:27;9.43;;;6.90;;
9749;SDS011;4914;43.218;27.908;2022-10-16T03:57:55;9.63;;;7.23;;
9749;SDS011;4914;43.218;27.908;2022-10-16T04:00:22;14.73;;;7.33;;
9749;SDS011;4914;43.218;27.908;2022-10-16T04:02:48;9.03;;;6.50;;
9749;SDS011;4914;43.218;27.908;2022-10-16T04:05:15;8.00;;;6.83;;
9749;SDS011;4914;43.218;27.908;2022-10-16T04:07:42;11.57;;;7.30;;
9749;SDS011;4914;43.218;27.908;2022-10-16T04:10:09;7.33;;;6.67;;
9749;SDS011;4914;43.218;27.908;2022-10-16T04:12:36;14.57;;;7.40;;
9749;SDS011;4914;43.218;27.908;2022-10-16T04:15:04;7.50;;;6.57;;
9749;SDS011;4914;43.218;27.908;2022-10-16T04:17:32;8.43;;;7.07;;
9749;SDS011;4914;43.218;27.908;2022-10-16T04:19:58;10.97;;;7.13;;
9749;SDS011;4914;43.218;27.908;2022-10-16T04:22:25;7.80;;;7.10;;
9749;SDS011;4914;43.218;27.908;2022-10-16T04:24:52;8.70;;;7.70;;
9749;SDS011;4914;43.218;27.908;2022-10-16T04:27:19;10.10;;;8.57;;
9749;SDS011;4914;43.218;27.908;2022-10-16T04:29:46;12.50;;;8.50;;
9749;SDS011;4914;43.218;27.908;2022-10-16T04:32:14;11.20;;;8.87;;
9749;SDS011;4914;43.218;27.908;2022-10-16T04:34:41;9.30;;;8.30;;
9749;SDS011;4914;43.218;27.908;2022-10-16T04:37:08;9.40;;;8.50;;
9749;SDS011;4914;43.218;27.908;2022-10-16T04:39:34;9.50;;;8.50;;
9749;SDS011;4914;43.218;27.908;2022-10-16T04:42:01;14.67;;;8.70;;
9749;SDS011;4914;43.218;27.908;2022-10-16T04:44:28;10.70;;;9.57;;
9749;SDS011;4914;43.218;27.908;2022-10-16T04:46:55;10.90;;;9.10;;
9749;SDS011;4914;43.218;27.908;2022-10-16T04:49:23;10.43;;;9.17;;
9749;SDS011;4914;43.218;27.908;2022-10-16T04:51:50;13.60;;;8.90;;
9749;SDS011;4914;43.218;27.908;2022-10-16T04:54:17;15.93;;;9.20;;
9749;SDS011;4914;43.218;27.908;2022-10-16T04:56:44;10.03;;;9.03;;
9749;SDS011;4914;43.218;27.908;2022-10-16T04:59:13;10.53;;;9.03;;
9749;SDS011;4914;43.218;27.908;2022-10-16T05:01:40;12.90;;;9.20;;
9749;SDS011;4914;43.218;27.908;2022-10-16T05:04:07;10.53;;;8.93;;
9749;SDS011;4914;43.218;27.908;2022-10-16T05:06:35;10.27;;;9.27;;
9749;SDS011;4914;43.218;27.908;2022-10-16T05:09:03;11.97;;;9.10;;
9749;SDS011;4914;43.218;27.908;2022-10-16T05:11:30;13.67;;;8.20;;
9749;SDS011;4914;43.218;27.908;2022-10-16T05:13:57;11.20;;;8.63;;
9749;SDS011;4914;43.218;27.908;2022-10-16T05:16:24;10.90;;;8.67;;
9749;SDS011;4914;43.218;27.908;2022-10-16T05:18:51;10.07;;;8.90;;
9749;SDS011;4914;43.218;27.908;2022-10-16T05:21:19;13.93;;;9.00;;
9749;SDS011;4914;43.218;27.908;2022-10-16T05:23:49;12.63;;;8.67;;
9749;SDS011;4914;43.218;27.908;2022-10-16T05:26:16;11.27;;;8.67;;
9749;SDS011;4914;43.218;27.908;2022-10-16T05:28:43;10.83;;;8.33;;
9749;SDS011;4914;43.218;27.908;2022-10-16T05:31:10;10.63;;;7.90;;
9749;SDS011;4914;43.218;27.908;2022-10-16T05:33:37;16.20;;;8.50;;
9749;SDS011;4914;43.218;27.908;2022-10-16T05:36:04;9.77;;;8.40;;
9749;SDS011;4914;43.218;27.908;2022-10-16T05:38:33;9.33;;;8.30;;
9749;SDS011;4914;43.218;27.908;2022-10-16T05:41:02;13.00;;;8.30;;
9749;SDS011;4914;43.218;27.908;2022-10-16T05:43:30;13.00;;;7.80;;
9749;SDS011;4914;43.218;27.908;2022-10-16T05:45:59;10.43;;;8.47;;
9749;SDS011;4914;43.218;27.908;2022-10-16T05:48:26;8.97;;;7.97;;
9749;SDS011;4914;43.218;27.908;2022-10-16T05:50:57;12.33;;;8.77;;
9749;SDS011;4914;43.218;27.908;2022-10-16T05:53:24;14.40;;;8.07;;
9749;SDS011;4914;43.218;27.908;2022-10-16T05:55:52;10.33;;;8.70;;
9749;SDS011;4914;43.218;27.908;2022-10-16T05:58:21;11.77;;;8.73;;
9749;SDS011;4914;43.218;27.908;2022-10-16T06:00:54;10.97;;;8.43;;
9749;SDS011;4914;43.218;27.908;2022-10-16T06:03:22;10.73;;;8.33;;
9749;SDS011;4914;43.218;27.908;2022-10-16T06:05:49;12.80;;;8.07;;
9749;SDS011;4914;43.218;27.908;2022-10-16T06:08:16;9.70;;;8.70;;
9749;SDS011;4914;43.218;27.908;2022-10-16T06:10:44;15.37;;;9.27;;
9749;SDS011;4914;43.218;27.908;2022-10-16T06:13:12;11.53;;;8.73;;
9749;SDS011;4914;43.218;27.908;2022-10-16T06:15:40;10.30;;;8.87;;
9749;SDS011;4914;43.218;27.908;2022-10-16T06:18:08;12.53;;;8.70;;
9749;SDS011;4914;43.218;27.908;2022-10-16T06:20:35;11.67;;;8.60;;
9749;SDS011;4914;43.218;27.908;2022-10-16T06:23:02;11.17;;;8.20;;
9749;SDS011;4914;43.218;27.908;2022-10-16T06:25:30;8.87;;;7.97;;
9749;SDS011;4914;43.218;27.908;2022-10-16T06:27:57;10.40;;;7.80;;
9749;SDS011;4914;43.218;27.908;2022-10-16T06:30:24;9.50;;;7.70;;
9749;SDS011;4914;43.218;27.908;2022-10-16T06:32:52;9.10;;;7.23;;
9749;SDS011;4914;43.218;27.908;2022-10-16T06:35:19;8.13;;;6.97;;
9749;SDS011;4914;43.218;27.908;2022-10-16T06:37:46;8.20;;;7.37;;
9749;SDS011;4914;43.218;27.908;2022-10-16T06:40:12;12.17;;;6.63;;
9749;SDS011;4914;43.218;27.908;2022-10-16T06:42:40;12.23;;;6.50;;
9749;SDS011;4914;43.218;27.908;2022-10-16T06:45:07;8.00;;;6.07;;
9749;SDS011;4914;43.218;27.908;2022-10-16T06:47:34;7.77;;;6.13;;
9749;SDS011;4914;43.218;27.908;2022-10-16T06:50:03;8.40;;;6.50;;
9749;SDS011;4914;43.218;27.908;2022-10-16T06:52:32;8.77;;;6.20;;
9749;SDS011;4914;43.218;27.908;2022-10-16T06:54:58;9.13;;;6.80;;
9749;SDS011;4914;43.218;27.908;2022-10-16T06:57:25;7.87;;;6.03;;
9749;SDS011;4914;43.218;27.908;2022-10-16T06:59:52;9.20;;;5.72;;
9749;SDS011;4914;43.218;27.908;2022-10-16T07:02:19;10.82;;;6.60;;
9749;SDS011;4914;43.218;27.908;2022-10-16T07:04:46;6.82;;;5.90;;
9749;SDS011;4914;43.218;27.908;2022-10-16T07:07:14;6.95;;;6.35;;
9749;SDS011;4914;43.218;27.908;2022-10-16T07:09:41;7.97;;;6.70;;
9749;SDS011;4914;43.218;27.908;2022-10-16T07:12:08;8.48;;;6.20;;
9749;SDS011;4914;43.218;27.908;2022-10-16T07:14:35;10.90;;;5.50;;
9749;SDS011;4914;43.218;27.908;2022-10-16T07:17:02;14.25;;;6.70;;
9749;SDS011;4914;43.218;27.908;2022-10-16T07:19:29;6.40;;;5.20;;
9749;SDS011;4914;43.218;27.908;2022-10-16T07:21:55;9.90;;;5.57;;
9749;SDS011;4914;43.218;27.908;2022-10-16T07:24:24;9.27;;;5.25;;
9749;SDS011;4914;43.218;27.908;2022-10-16T07:26:51;7.82;;;5.00;;
9749;SDS011;4914;43.218;27.908;2022-10-16T07:29:18;8.25;;;5.60;;
9749;SDS011;4914;43.218;27.908;2022-10-16T07:31:47;6.50;;;5.35;;
9749;SDS011;4914;43.218;27.908;2022-10-16T07:34:15;16.00;;;6.10;;
9749;SDS011;4914;43.218;27.908;2022-10-16T07:36:43;8.25;;;5.43;;
9749;SDS011;4914;43.218;27.908;2022-10-16T07:39:11;6.22;;;5.38;;
9749;SDS011;4914;43.218;27.908;2022-10-16T07:41:39;8.50;;;5.15;;
9749;SDS011;4914;43.218;27.908;2022-10-16T07:44:06;7.13;;;5.30;;
9749;SDS011;4914;43.218;27.908;2022-10-16T07:46:33;9.55;;;5.20;;
9749;SDS011;4914;43.218;27.908;2022-10-16T07:49:01;7.75;;;5.72;;
9749;SDS011;4914;43.218;27.908;2022-10-16T07:51:28;7.82;;;5.88;;
9749;SDS011;4914;43.218;27.908;2022-10-16T07:53:55;6.95;;;5.80;;
9749;SDS011;4914;43.218;27.908;2022-10-16T07:56:22;6.47;;;5.88;;
9749;SDS011;4914;43.218;27.908;2022-10-16T07:58:51;8.63;;;4.88;;
9749;SDS011;4914;43.218;27.908;2022-10-16T08:01:18;10.57;;;5.45;;
9749;SDS011;4914;43.218;27.908;2022-10-16T08:03:46;10.35;;;6.57;;
9749;SDS011;4914;43.218;27.908;2022-10-16T08:06:14;9.43;;;5.38;;
9749;SDS011;4914;43.218;27.908;2022-10-16T08:08:42;5.90;;;5.10;;
9749;SDS011;4914;43.218;27.908;2022-10-16T08:11:09;6.47;;;4.70;;
9749;SDS011;4914;43.218;27.908;2022-10-16T08:13:36;11.23;;;4.45;;
9749;SDS011;4914;43.218;27.908;2022-10-16T08:16:05;6.80;;;4.70;;
9749;SDS011;4914;43.218;27.908;2022-10-16T08:18:33;10.35;;;4.80;;
9749;SDS011;4914;43.218;27.908;2022-10-16T08:21:01;9.18;;;4.70;;
9749;SDS011;4914;43.218;27.908;2022-10-16T08:23:28;9.82;;;4.60;;
9749;SDS011;4914;43.218;27.908;2022-10-16T08:25:56;9.88;;;4.65;;
9749;SDS011;4914;43.218;27.908;2022-10-16T08:28:27;11.65;;;4.85;;
9749;SDS011;4914;43.218;27.908;2022-10-16T08:30:54;6.03;;;4.40;;
9749;SDS011;4914;43.218;27.908;2022-10-16T08:33:23;7.32;;;4.90;;
9749;SDS011;4914;43.218;27.908;2022-10-16T08:35:50;8.88;;;4.68;;
9749;SDS011;4914;43.218;27.908;2022-10-16T08:38:18;8.77;;;4.75;;
9749;SDS011;4914;43.218;27.908;2022-10-16T08:40:46;5.95;;;4.15;;
9749;SDS011;4914;43.218;27.908;2022-10-16T08:46:11;8.65;;;4.40;;
9749;SDS011;4914;43.218;27.908;2022-10-16T08:48:49;4.82;;;4.40;;
9749;SDS011;4914;43.218;27.908;2022-10-16T08:51:18;12.20;;;4.40;;
9749;SDS011;4914;43.218;27.908;2022-10-16T08:53:49;5.40;;;4.50;;
9749;SDS011;4914;43.218;27.908;2022-10-16T08:56:20;6.78;;;4.93;;
9749;SDS011;4914;43.218;27.908;2022-10-16T08:58:47;7.88;;;4.47;;
9749;SDS011;4914;43.218;27.908;2022-10-16T09:01:15;8.13;;;4.35;;
9749;SDS011;4914;43.218;27.908;2022-10-16T09:03:59;7.55;;;4.30;;
9749;SDS011;4914;43.218;27.908;2022-10-16T09:06:50;11.15;;;4.80;;
9749;SDS011;4914;43.218;27.908;2022-10-16T09:09:25;6.07;;;4.40;;
9749;SDS011;4914;43.218;27.908;2022-10-16T09:12:07;9.02;;;4.38;;
9749;SDS011;4914;43.218;27.908;2022-10-16T09:14:52;5.68;;;4.60;;
9749;SDS011;4914;43.218;27.908;2022-10-16T09:17:30;12.35;;;4.72;;
9749;SDS011;4914;43.218;27.908;2022-10-16T09:20:17;10.02;;;4.88;;
9749;SDS011;4914;43.218;27.908;2022-10-16T09:22:50;15.60;;;5.13;;
9749;SDS011;4914;43.218;27.908;2022-10-16T09:25:21;7.80;;;5.47;;
9749;SDS011;4914;43.218;27.908;2022-10-16T09:27:48;6.80;;;5.13;;
9749;SDS011;4914;43.218;27.908;2022-10-16T09:30:20;6.15;;;5.03;;
9749;SDS011;4914;43.218;27.908;2022-10-16T09:32:48;7.82;;;5.00;;
9749;SDS011;4914;43.218;27.908;2022-10-16T09:35:19;6.25;;;4.65;;
9749;SDS011;4914;43.218;27.908;2022-10-16T09:37:49;6.18;;;4.97;;
9749;SDS011;4914;43.218;27.908;2022-10-16T09:40:25;4.93;;;4.47;;
9749;SDS011;4914;43.218;27.908;2022-10-16T09:42:56;10.13;;;4.55;;
9749;SDS011;4914;43.218;27.908;2022-10-16T09:45:28;12.73;;;6.15;;
9749;SDS011;4914;43.218;27.908;2022-10-16T09:47:55;7.32;;;5.47;;
9749;SDS011;4914;43.218;27.908;2022-10-16T09:50:24;8.45;;;4.93;;
9749;SDS011;4914;43.218;27.908;2022-10-16T09:53:05;11.82;;;4.80;;
9749;SDS011;4914;43.218;27.908;2022-10-16T09:55:47;7.90;;;4.70;;
9749;SDS011;4914;43.218;27.908;2022-10-16T09:58:14;6.22;;;5.63;;
9749;SDS011;4914;43.218;27.908;2022-10-16T10:00:41;6.70;;;4.70;;
9749;SDS011;4914;43.218;27.908;2022-10-16T10:03:15;9.13;;;4.72;;
9749;SDS011;4914;43.218;27.908;2022-10-16T10:06:05;8.05;;;4.53;;
9749;SDS011;4914;43.218;27.908;2022-10-16T10:08:52;6.85;;;4.43;;
9749;SDS011;4914;43.218;27.908;2022-10-16T10:14:13;5.88;;;4.50;;
9749;SDS011;4914;43.218;27.908;2022-10-16T10:16:43;9.52;;;4.68;;
9749;SDS011;4914;43.218;27.908;2022-10-16T10:19:13;20.27;;;5.50;;
9749;SDS011;4914;43.218;27.908;2022-10-16T10:21:43;7.80;;;5.13;;
9749;SDS011;4914;43.218;27.908;2022-10-16T10:24:10;9.85;;;4.50;;
9749;SDS011;4914;43.218;27.908;2022-10-16T10:26:39;8.32;;;5.88;;
9749;SDS011;4914;43.218;27.908;2022-10-16T10:29:14;10.80;;;6.03;;
9749;SDS011;4914;43.218;27.908;2022-10-16T10:31:52;7.03;;;4.53;;
9749;SDS011;4914;43.218;27.908;2022-10-16T10:34:36;6.50;;;4.50;;
9749;SDS011;4914;43.218;27.908;2022-10-16T10:37:18;7.63;;;4.63;;
9749;SDS011;4914;43.218;27.908;2022-10-16T10:39:57;6.32;;;4.50;;
9749;SDS011;4914;43.218;27.908;2022-10-16T10:42:31;9.02;;;4.50;;
9749;SDS011;4914;43.218;27.908;2022-10-16T10:45:12;7.13;;;4.63;;
9749;SDS011;4914;43.218;27.908;2022-10-16T10:47:48;7.65;;;5.10;;
9749;SDS011;4914;43.218;27.908;2022-10-16T10:50:26;8.98;;;5.22;;
9749;SDS011;4914;43.218;27.908;2022-10-16T10:53:02;7.05;;;4.88;;
9749;SDS011;4914;43.218;27.908;2022-10-16T10:55:37;8.15;;;5.10;;
9749;SDS011;4914;43.218;27.908;2022-10-16T10:58:19;8.75;;;5.43;;
9749;SDS011;4914;43.218;27.908;2022-10-16T11:01:04;8.63;;;5.20;;
9749;SDS011;4914;43.218;27.908;2022-10-16T11:06:39;7.00;;;5.50;;
9749;SDS011;4914;43.218;27.908;2022-10-16T11:09:11;7.93;;;4.90;;
9749;SDS011;4914;43.218;27.908;2022-10-16T11:11:43;16.48;;;5.70;;
9749;SDS011;4914;43.218;27.908;2022-10-16T11:14:15;6.53;;;4.97;;
9749;SDS011;4914;43.218;27.908;2022-10-16T11:16:47;10.48;;;7.22;;
9749;SDS011;4914;43.218;27.908;2022-10-16T11:19:21;21.85;;;18.92;;
9749;SDS011;4914;43.218;27.908;2022-10-16T11:21:56;9.25;;;6.43;;
9749;SDS011;4914;43.218;27.908;2022-10-16T11:24:34;9.07;;;6.13;;
9749;SDS011;4914;43.218;27.908;2022-10-16T11:27:08;7.40;;;4.55;;
9749;SDS011;4914;43.218;27.908;2022-10-16T11:29:40;7.63;;;5.03;;
9749;SDS011;4914;43.218;27.908;2022-10-16T11:32:19;7.35;;;5.15;;
9749;SDS011;4914;43.218;27.908;2022-10-16T11:34:51;7.55;;;5.35;;
9749;SDS011;4914;43.218;27.908;2022-10-16T11:37:24;7.55;;;5.82;;
9749;SDS011;4914;43.218;27.908;2022-10-16T11:39:59;7.40;;;5.50;;
9749;SDS011;4914;43.218;27.908;2022-10-16T11:42:37;6.10;;;5.50;;
9749;SDS011;4914;43.218;27.908;2022-10-16T11:45:13;7.13;;;6.43;;
9749;SDS011;4914;43.218;27.908;2022-10-16T11:47:54;7.93;;;5.00;;
9749;SDS011;4914;43.218;27.908;2022-10-16T11:50:29;7.28;;;4.93;;
9749;SDS011;4914;43.218;27.908;2022-10-16T11:53:01;8.75;;;5.30;;
9749;SDS011;4914;43.218;27.908;2022-10-16T11:55:38;6.72;;;5.43;;
9749;SDS011;4914;43.218;27.908;2022-10-16T11:58:07;10.07;;;4.95;;
9749;SDS011;4914;43.218;27.908;2022-10-16T12:00:43;6.50;;;5.80;;
9749;SDS011;4914;43.218;27.908;2022-10-16T12:03:18;21.80;;;6.50;;
9749;SDS011;4914;43.218;27.908;2022-10-16T12:06:01;12.23;;;6.07;;
9749;SDS011;4914;43.218;27.908;2022-10-16T12:08:38;8.98;;;5.38;;
9749;SDS011;4914;43.218;27.908;2022-10-16T12:11:09;8.95;;;5.45;;
9749;SDS011;4914;43.218;27.908;2022-10-16T12:13:47;7.03;;;5.28;;
9749;SDS011;4914;43.218;27.908;2022-10-16T12:16:21;9.05;;;5.40;;
9749;SDS011;4914;43.218;27.908;2022-10-16T12:18:49;10.20;;;5.70;;
9749;SDS011;4914;43.218;27.908;2022-10-16T12:21:36;10.68;;;9.63;;
9749;SDS011;4914;43.218;27.908;2022-10-16T12:24:03;13.00;;;6.53;;
9749;SDS011;4914;43.218;27.908;2022-10-16T12:26:32;8.43;;;5.13;;
9749;SDS011;4914;43.218;27.908;2022-10-16T12:29:12;6.45;;;5.38;;
9749;SDS011;4914;43.218;27.908;2022-10-16T12:31:45;11.52;;;10.35;;
9749;SDS011;4914;43.218;27.908;2022-10-16T12:34:14;7.35;;;5.88;;
9749;SDS011;4914;43.218;27.908;2022-10-16T12:36:49;10.85;;;5.82;;
9749;SDS011;4914;43.218;27.908;2022-10-16T12:39:20;10.77;;;5.70;;
9749;SDS011;4914;43.218;27.908;2022-10-16T12:41:59;10.55;;;6.07;;
9749;SDS011;4914;43.218;27.908;2022-10-16T12:47:19;9.70;;;5.53;;
9749;SDS011;4914;43.218;27.908;2022-10-16T12:49:48;7.15;;;5.32;;
9749;SDS011;4914;43.218;27.908;2022-10-16T12:52:24;7.00;;;5.70;;
9749;SDS011;4914;43.218;27.908;2022-10-16T12:54:55;7.45;;;5.70;;
9749;SDS011;4914;43.218;27.908;2022-10-16T12:57:36;9.02;;;5.70;;
9749;SDS011;4914;43.218;27.908;2022-10-16T13:00:19;6.25;;;5.60;;
9749;SDS011;4914;43.218;27.908;2022-10-16T13:02:55;7.93;;;6.00;;
9749;SDS011;4914;43.218;27.908;2022-10-16T13:05:40;9.13;;;6.30;;
9749;SDS011;4914;43.218;27.908;2022-10-16T13:08:22;7.28;;;6.00;;
9749;SDS011;4914;43.218;27.908;2022-10-16T13:11:03;7.45;;;5.88;;
9749;SDS011;4914;43.218;27.908;2022-10-16T13:13:46;10.70;;;6.75;;
9749;SDS011;4914;43.218;27.908;2022-10-16T13:16:24;13.32;;;9.57;;
9749;SDS011;4914;43.218;27.908;2022-10-16T13:19:04;11.05;;;9.80;;
9749;SDS011;4914;43.218;27.908;2022-10-16T13:21:41;7.85;;;6.70;;
9749;SDS011;4914;43.218;27.908;2022-10-16T13:24:18;10.38;;;8.02;;
9749;SDS011;4914;43.218;27.908;2022-10-16T13:26:54;19.17;;;14.85;;
9749;SDS011;4914;43.218;27.908;2022-10-16T13:29:30;17.73;;;10.30;;
9749;SDS011;4914;43.218;27.908;2022-10-16T13:31:59;14.55;;;11.82;;
9749;SDS011;4914;43.218;27.908;2022-10-16T13:34:32;12.10;;;7.25;;
9749;SDS011;4914;43.218;27.908;2022-10-16T13:37:15;9.05;;;6.57;;
9749;SDS011;4914;43.218;27.908;2022-10-16T13:39:44;9.88;;;8.98;;
9749;SDS011;4914;43.218;27.908;2022-10-16T13:42:12;9.48;;;6.30;;
9749;SDS011;4914;43.218;27.908;2022-10-16T13:44:43;13.90;;;12.50;;
9749;SDS011;4914;43.218;27.908;2022-10-16T13:47:16;13.98;;;10.30;;
9749;SDS011;4914;43.218;27.908;2022-10-16T13:49:43;7.72;;;7.03;;
9749;SDS011;4914;43.218;27.908;2022-10-16T13:52:17;21.48;;;12.90;;
9749;SDS011;4914;43.218;27.908;2022-10-16T13:54:45;12.88;;;8.55;;
9749;SDS011;4914;43.218;27.908;2022-10-16T13:57:13;15.27;;;10.13;;
9749;SDS011;4914;43.218;27.908;2022-10-16T13:59:40;8.40;;;6.20;;
9749;SDS011;4914;43.218;27.908;2022-10-16T14:02:14;11.55;;;6.18;;
9749;SDS011;4914;43.218;27.908;2022-10-16T14:04:46;7.80;;;5.72;;
9749;SDS011;4914;43.218;27.908;2022-10-16T14:07:14;12.40;;;6.65;;
9749;SDS011;4914;43.218;27.908;2022-10-16T14:09:47;10.40;;;6.50;;
9749;SDS011;4914;43.218;27.908;2022-10-16T14:12:16;7.00;;;6.30;;
9749;SDS011;4914;43.218;27.908;2022-10-16T14:14:44;9.27;;;6.60;;
9749;SDS011;4914;43.218;27.908;2022-10-16T14:17:14;9.45;;;5.97;;
9749;SDS011;4914;43.218;27.908;2022-10-16T14:19:45;9.23;;;5.88;;
9749;SDS011;4914;43.218;27.908;2022-10-16T14:22:21;8.15;;;5.80;;
9749;SDS011;4914;43.218;27.908;2022-10-16T14:24:53;9.65;;;6.07;;
9749;SDS011;4914;43.218;27.908;2022-10-16T14:27:28;7.47;;;6.68;;
9749;SDS011;4914;43.218;27.908;2022-10-16T14:32:53;7.40;;;5.88;;
9749;SDS011;4914;43.218;27.908;2022-10-16T14:35:26;6.38;;;5.72;;
9749;SDS011;4914;43.218;27.908;2022-10-16T14:37:56;13.43;;;9.00;;
9749;SDS011;4914;43.218;27.908;2022-10-16T14:40:25;13.10;;;9.43;;
9749;SDS011;4914;43.218;27.908;2022-10-16T14:42:54;9.48;;;6.35;;
9749;SDS011;4914;43.218;27.908;2022-10-16T14:45:22;14.25;;;6.70;;
9749;SDS011;4914;43.218;27.908;2022-10-16T14:47:54;8.40;;;7.18;;
9749;SDS011;4914;43.218;27.908;2022-10-16T14:50:23;9.80;;;8.38;;
9749;SDS011;4914;43.218;27.908;2022-10-16T14:52:51;9.02;;;7.03;;
9749;SDS011;4914;43.218;27.908;2022-10-16T14:55:18;9.02;;;7.78;;
9749;SDS011;4914;43.218;27.908;2022-10-16T14:57:45;13.20;;;7.35;;
9749;SDS011;4914;43.218;27.908;2022-10-16T15:00:14;16.70;;;12.85;;
9749;SDS011;4914;43.218;27.908;2022-10-16T15:02:44;10.93;;;7.97;;
9749;SDS011;4914;43.218;27.908;2022-10-16T15:05:14;9.75;;;6.65;;
9749;SDS011;4914;43.218;27.908;2022-10-16T15:07:42;6.70;;;6.00;;
9749;SDS011;4914;43.218;27.908;2022-10-16T15:10:10;12.25;;;5.85;;
9749;SDS011;4914;43.218;27.908;2022-10-16T15:12:37;9.93;;;7.03;;
9749;SDS011;4914;43.218;27.908;2022-10-16T15:15:21;8.55;;;7.65;;
9749;SDS011;4914;43.218;27.908;2022-10-16T15:17:53;8.93;;;5.93;;
9749;SDS011;4914;43.218;27.908;2022-10-16T15:20:23;6.22;;;5.63;;
9749;SDS011;4914;43.218;27.908;2022-10-16T15:22:51;7.07;;;6.38;;
9749;SDS011;4914;43.218;27.908;2022-10-16T15:25:25;8.85;;;6.10;;
9749;SDS011;4914;43.218;27.908;2022-10-16T15:27:58;9.77;;;6.43;;